createdAt,value
2019-06-07T00:01:08.471Z,11.28
2019-06-07T00:06:20.084Z,11.29
2019-06-07T00:11:21.383Z,11.20
2019-06-07T00:16:28.449Z,11.20
2019-06-07T00:22:13.394Z,11.38
2019-06-07T00:26:57.239Z,11.31
2019-06-07T00:31:47.688Z,11.32
2019-06-07T00:36:53.011Z,11.23
2019-06-07T00:41:58.300Z,11.27
2019-06-07T00:47:04.085Z,11.38
2019-06-07T00:52:09.319Z,11.30
2019-06-07T00:57:16.713Z,11.30
2019-06-07T01:02:25.997Z,11.50
2019-06-07T01:07:29.521Z,11.52
2019-06-07T01:12:34.816Z,11.70
2019-06-07T01:17:59.922Z,11.77
2019-06-07T01:22:47.366Z,11.79
2019-06-07T01:27:52.786Z,11.86
2019-06-07T01:32:58.249Z,11.85
2019-06-07T01:38:04.769Z,11.85
2019-06-07T01:43:10.350Z,11.88
2019-06-07T01:48:20.748Z,11.91
2019-06-07T01:53:25.728Z,11.88
2019-06-07T01:58:29.697Z,12.00
2019-06-07T02:03:35.195Z,11.97
2019-06-07T02:08:40.449Z,11.94
2019-06-07T02:13:45.767Z,12.05
2019-06-07T02:19:01.686Z,11.97
2019-06-07T02:23:58.249Z,11.92
2019-06-07T02:29:04.568Z,11.89
2019-06-07T02:34:09.897Z,11.92
2019-06-07T02:39:15.960Z,11.79
2019-06-07T02:44:24.075Z,11.78
2019-06-07T02:49:34.204Z,11.77
2019-06-07T02:54:40.272Z,11.75
2019-06-07T03:00:05.004Z,11.65
2019-06-07T03:04:51.572Z,11.64
2019-06-07T03:09:57.465Z,11.55
2019-06-07T03:15:03.849Z,11.57
2019-06-07T03:20:11.084Z,11.59
2019-06-07T03:25:16.588Z,11.52
2019-06-07T03:30:38.811Z,11.47
2019-06-07T03:35:31.308Z,11.40
2019-06-07T03:40:39.584Z,11.40
2019-06-07T03:48:45.400Z,11.34
2019-06-07T03:53:50.971Z,11.30
2019-06-07T03:58:56.987Z,11.33
2019-06-07T04:04:02.687Z,11.16
2019-06-07T04:09:08.472Z,11.09
2019-06-07T04:14:14.021Z,11.23
2019-06-07T04:19:19.415Z,11.27
2019-06-07T04:24:25.214Z,11.26
2019-06-07T04:29:33.939Z,11.12
2019-06-07T04:34:42.451Z,11.03
2019-06-07T04:39:45.723Z,10.95
2019-06-07T04:44:51.780Z,10.97
2019-06-07T04:49:59.707Z,11.02
2019-06-07T04:55:05.146Z,11.03
2019-06-07T05:00:45.096Z,10.96
2019-06-07T05:05:18.471Z,11.08
2019-06-07T05:10:23.910Z,11.00
2019-06-07T05:15:29.595Z,11.11
2019-06-07T05:20:36.081Z,11.37
2019-06-07T05:25:44.529Z,11.53
2019-06-07T05:31:07.713Z,11.49
2019-06-07T05:35:56.668Z,11.59
2019-06-07T05:41:03.006Z,11.75
2019-06-07T05:46:08.336Z,11.59
2019-06-07T05:51:13.824Z,11.67
2019-06-07T05:56:19.348Z,11.72
2019-06-07T06:02:00.140Z,11.86
2019-06-07T06:06:31.877Z,12.20
2019-06-07T06:11:49.460Z,12.09
2019-06-07T06:16:47.931Z,12.29
2019-06-07T06:21:52.423Z,12.47
2019-06-07T06:27:15.211Z,12.39
2019-06-07T06:37:11.968Z,12.73
2019-06-07T06:42:17.331Z,12.72
2019-06-07T06:50:07.461Z,13.53
2019-06-07T06:55:13.029Z,14.00
2019-06-07T07:00:20.121Z,14.63
2019-06-07T07:05:25.762Z,14.90
2019-06-07T07:10:40.770Z,15.28
2019-06-07T07:15:48.134Z,14.96
2019-06-07T07:20:57.082Z,15.86
2019-06-07T07:26:00.383Z,16.08
2019-06-07T07:31:05.884Z,15.83
2019-06-07T07:36:28.708Z,16.34
2019-06-07T07:41:18.293Z,16.46
2019-06-07T07:46:29.781Z,16.41
2019-06-07T07:51:30.513Z,16.90
2019-06-07T07:56:35.807Z,16.36
2019-06-07T08:01:41.091Z,16.96
2019-06-07T08:06:46.812Z,16.39
2019-06-07T08:11:55.868Z,16.20
2019-06-07T08:16:59.717Z,17.30
2019-06-07T08:22:04.986Z,17.79
2019-06-07T08:27:25.382Z,17.87
2019-06-07T08:32:17.500Z,17.87
2019-06-07T08:37:22.850Z,18.19
2019-06-07T08:42:37.105Z,18.71
2019-06-07T08:47:35.548Z,18.79
2019-06-07T08:52:40.908Z,18.97
2019-06-07T08:57:46.520Z,19.35
2019-06-07T09:02:53.166Z,19.02
2019-06-07T09:08:21.079Z,18.85
2019-06-07T09:13:11.632Z,19.29
2019-06-07T09:23:21.681Z,20.05
2019-06-07T09:28:27.462Z,20.06
2019-06-07T09:33:32.907Z,20.25
2019-06-07T09:38:38.234Z,20.26
2019-06-07T09:44:01.362Z,20.58
2019-06-07T09:54:01.260Z,20.60
2019-06-07T09:59:07.542Z,20.40
2019-06-07T10:04:30.223Z,21.16
2019-06-07T10:14:27.673Z,20.87
2019-06-07T10:19:33.331Z,21.36
2019-06-07T10:24:38.733Z,21.67
2019-06-07T10:29:46.234Z,21.59
2019-06-07T10:34:52.472Z,21.75
2019-06-07T10:39:57.847Z,21.78
2019-06-07T10:45:04.872Z,22.13
2019-06-07T10:50:10.621Z,22.28
2019-06-07T10:55:15.997Z,22.32
2019-06-07T11:00:21.874Z,22.71
2019-06-07T11:05:27.498Z,22.29
2019-06-07T11:10:33.171Z,22.61
2019-06-07T11:15:38.909Z,22.96
2019-06-07T11:20:44.234Z,22.98
2019-06-07T11:25:49.586Z,23.33
2019-06-07T11:30:54.855Z,23.24
2019-06-07T11:36:00.100Z,24.00
2019-06-07T11:41:05.364Z,24.10
2019-06-07T11:46:10.999Z,24.30
2019-06-07T11:51:16.395Z,25.31
2019-06-07T11:56:22.517Z,25.21
2019-06-07T12:01:28.731Z,24.72
2019-06-07T12:06:34.023Z,25.08
2019-06-07T12:11:39.322Z,25.11
2019-06-07T12:16:44.967Z,25.45
2019-06-07T12:21:50.308Z,25.61
2019-06-07T12:26:55.695Z,25.09
2019-06-07T12:32:01.097Z,24.83
2019-06-07T12:37:07.396Z,25.36
2019-06-07T12:42:16.243Z,25.91
2019-06-07T12:47:23.264Z,26.31
2019-06-07T12:52:28.835Z,28.30
2019-06-07T12:57:34.162Z,29.09
2019-06-07T13:02:40.239Z,30.30
2019-06-07T13:07:46.975Z,31.80
2019-06-07T13:12:52.282Z,31.31
2019-06-07T13:17:57.598Z,32.36
2019-06-07T13:23:03.243Z,32.46
2019-06-07T13:28:08.660Z,33.08
2019-06-07T13:33:16.790Z,32.82
2019-06-07T13:38:26.285Z,33.16
2019-06-07T13:43:31.624Z,33.00
2019-06-07T13:48:36.928Z,33.72
2019-06-07T13:53:42.589Z,34.48
2019-06-07T13:58:48.025Z,34.35
2019-06-07T14:03:54.313Z,35.48
2019-06-07T14:08:59.580Z,34.83
2019-06-07T14:14:05.214Z,34.00
2019-06-07T14:19:10.641Z,33.94
2019-06-07T14:24:15.957Z,34.19
2019-06-07T14:29:21.524Z,34.19
2019-06-07T14:34:28.672Z,34.66
2019-06-07T14:39:34.196Z,34.27
2019-06-07T14:44:39.513Z,35.04
2019-06-07T14:49:45.025Z,33.19
2019-06-07T14:54:50.409Z,30.81
2019-06-07T14:59:55.674Z,28.80
2019-06-07T15:05:01.736Z,27.95
2019-06-07T15:10:09.573Z,30.96
2019-06-07T15:15:14.970Z,33.39
2019-06-07T15:20:20.353Z,31.20
2019-06-07T15:25:26.956Z,29.31
2019-06-07T15:30:33.650Z,27.71
2019-06-07T15:35:39.193Z,27.09
2019-06-07T15:40:44.544Z,26.39
2019-06-07T15:45:50.015Z,25.97
2019-06-07T15:50:56.590Z,25.38
2019-06-07T15:56:02.899Z,24.94
2019-06-07T16:01:08.128Z,24.23
2019-06-07T16:06:13.740Z,23.84
2019-06-07T16:11:19.060Z,23.27
2019-06-07T16:16:24.670Z,22.76
2019-06-07T16:21:30.432Z,22.52
2019-06-07T16:26:36.053Z,22.28
2019-06-07T16:31:44.927Z,21.84
2019-06-07T16:36:50.607Z,21.73
2019-06-07T16:41:56.014Z,21.61
2019-06-07T16:47:01.401Z,21.18
2019-06-07T16:52:06.668Z,20.13
2019-06-07T16:57:11.987Z,19.26
2019-06-07T17:02:17.306Z,18.78
2019-06-07T17:07:22.589Z,18.03
2019-06-07T17:12:29.005Z,17.48
2019-06-07T17:17:34.334Z,16.61
2019-06-07T17:22:42.002Z,15.91
2019-06-07T17:27:48.266Z,15.40
2019-06-07T17:32:59.174Z,15.08
2019-06-07T17:38:00.721Z,14.93
2019-06-07T17:43:06.406Z,14.70
2019-06-07T17:48:11.690Z,14.54
2019-06-07T17:53:17.197Z,14.38
2019-06-07T17:58:22.846Z,14.46
2019-06-07T18:03:28.151Z,14.72
2019-06-07T18:08:33.900Z,14.88
2019-06-07T18:13:39.128Z,14.90
2019-06-07T18:18:44.516Z,14.96
2019-06-07T18:23:50.351Z,15.01
2019-06-07T18:28:55.758Z,14.80
2019-06-07T18:34:02.564Z,14.80
2019-06-07T18:39:09.103Z,14.76
2019-06-07T18:44:21.502Z,14.84
2019-06-07T18:49:22.538Z,14.82
2019-06-07T18:54:28.180Z,14.83
2019-06-07T18:59:33.646Z,14.80
2019-06-07T19:04:38.863Z,14.75
2019-06-07T19:09:44.651Z,14.47
2019-06-07T19:14:51.515Z,14.53
2019-06-07T19:19:58.180Z,14.56
2019-06-07T19:25:03.773Z,14.53
2019-06-07T19:30:09.804Z,14.53
2019-06-07T19:35:17.294Z,14.55
2019-06-07T19:40:23.233Z,14.59
2019-06-07T19:45:31.424Z,14.47
2019-06-07T19:50:35.599Z,14.44
2019-06-07T19:55:42.088Z,14.52
2019-06-07T20:00:47.780Z,14.40
2019-06-07T20:05:54.040Z,14.33
2019-06-07T20:11:00.559Z,14.11
2019-06-07T20:16:05.885Z,14.18
2019-06-07T20:21:11.822Z,14.23
2019-06-07T20:26:17.349Z,14.01
2019-06-07T20:31:23.565Z,13.94
2019-06-07T20:36:30.372Z,14.10
2019-06-07T20:41:36.593Z,14.03
2019-06-07T20:46:42.085Z,13.98
2019-06-07T20:51:47.526Z,13.87
2019-06-07T20:56:52.766Z,13.68
2019-06-07T21:01:58.694Z,13.60
2019-06-07T21:07:05.456Z,13.34
2019-06-07T21:12:10.726Z,13.42
2019-06-07T21:17:16.309Z,13.49
2019-06-07T21:22:21.921Z,13.52
2019-06-07T21:27:27.161Z,13.61
2019-06-07T21:32:32.486Z,13.56
2019-06-07T21:37:38.190Z,13.57
2019-06-07T21:42:43.580Z,13.56
2019-06-07T21:47:49.132Z,13.74
2019-06-07T21:52:54.415Z,13.70
2019-06-07T21:57:59.658Z,13.66
2019-06-07T22:06:59.988Z,13.71
2019-06-07T22:12:06.435Z,13.66
2019-06-07T22:17:12.360Z,13.65
2019-06-07T22:22:17.691Z,13.57
2019-06-07T22:27:23.099Z,13.49
2019-06-07T22:32:28.522Z,13.49
2019-06-07T22:37:34.126Z,13.45
2019-06-07T22:42:39.530Z,13.52
2019-06-07T22:47:45.676Z,13.47
2019-06-07T22:52:51.473Z,13.38
2019-06-07T22:57:58.623Z,13.49
2019-06-07T23:03:03.950Z,13.44
2019-06-07T23:08:10.988Z,13.38
2019-06-07T23:13:17.718Z,13.41
2019-06-07T23:18:23.056Z,13.44
2019-06-07T23:23:28.586Z,13.39
2019-06-07T23:28:33.987Z,13.49
2019-06-07T23:33:39.589Z,13.54
2019-06-07T23:38:44.938Z,13.53
2019-06-07T23:43:50.624Z,13.54
2019-06-07T23:48:56.552Z,13.61
2019-06-07T23:54:02.005Z,13.66
2019-06-07T23:59:07.717Z,13.72
